createdAt,value
2019-02-19T00:00:52.792Z,19.12
2019-02-19T00:03:32.941Z,17.42
2019-02-19T00:06:12.152Z,18.65
2019-02-19T00:08:51.366Z,16.65
2019-02-19T00:11:31.190Z,17.40
2019-02-19T00:14:10.610Z,19.45
2019-02-19T00:16:50.577Z,17.17
2019-02-19T00:19:29.946Z,15.03
2019-02-19T00:22:09.780Z,16.00
2019-02-19T00:24:49.066Z,16.32
2019-02-19T00:27:28.889Z,15.63
2019-02-19T00:30:09.413Z,15.90
2019-02-19T00:32:48.591Z,14.93
2019-02-19T00:35:27.850Z,16.12
2019-02-19T00:38:07.214Z,16.93
2019-02-19T00:40:46.939Z,17.30
2019-02-19T00:43:32.437Z,17.45
2019-02-19T00:46:11.779Z,17.23
2019-02-19T00:48:50.952Z,17.60
2019-02-19T00:51:30.762Z,16.95
2019-02-19T00:54:09.851Z,17.50
2019-02-19T00:56:49.622Z,18.30
2019-02-19T00:59:29.464Z,18.10
2019-02-19T01:02:09.324Z,17.32
2019-02-19T01:04:49.216Z,16.25
2019-02-19T01:07:29.025Z,16.17
2019-02-19T01:10:08.408Z,17.65
2019-02-19T01:12:48.358Z,18.95
2019-02-19T01:15:28.250Z,17.73
2019-02-19T01:18:08.824Z,17.55
2019-02-19T01:20:48.513Z,16.12
2019-02-19T01:23:27.869Z,14.63
2019-02-19T01:26:07.696Z,13.85
2019-02-19T01:28:47.471Z,14.65
2019-02-19T01:31:27.334Z,14.18
2019-02-19T01:34:06.593Z,14.10
2019-02-19T01:36:46.460Z,14.93
2019-02-19T01:39:26.262Z,14.33
2019-02-19T01:42:05.644Z,16.87
2019-02-19T01:44:44.838Z,17.55
2019-02-19T01:47:25.073Z,17.10
2019-02-19T01:50:05.494Z,16.93
2019-02-19T01:52:44.824Z,16.15
2019-02-19T01:55:24.632Z,18.00
2019-02-19T01:58:04.377Z,20.52
2019-02-19T02:00:43.587Z,19.80
2019-02-19T02:03:23.368Z,20.50
2019-02-19T02:06:02.600Z,22.87
2019-02-19T02:08:43.768Z,24.27
2019-02-19T02:11:22.875Z,22.67
2019-02-19T02:14:02.110Z,22.32
2019-02-19T02:16:41.215Z,23.80
2019-02-19T02:19:20.415Z,23.18
2019-02-19T02:22:00.207Z,21.68
2019-02-19T02:24:39.979Z,20.50
2019-02-19T02:27:19.228Z,19.37
2019-02-19T02:29:58.401Z,17.15
2019-02-19T02:32:37.658Z,18.17
2019-02-19T02:35:16.855Z,17.57
2019-02-19T02:37:55.988Z,16.20
2019-02-19T02:40:35.240Z,15.48
2019-02-19T02:43:15.064Z,16.45
2019-02-19T02:45:54.814Z,16.62
2019-02-19T02:48:34.745Z,13.35
2019-02-19T02:51:13.896Z,14.55
2019-02-19T02:53:53.849Z,17.12
2019-02-19T02:56:34.221Z,16.87
2019-02-19T02:59:13.540Z,13.85
2019-02-19T03:01:53.346Z,13.90
2019-02-19T03:04:33.134Z,13.78
2019-02-19T03:07:35.565Z,13.35
2019-02-19T03:10:15.750Z,15.05
2019-02-19T03:12:55.126Z,14.65
2019-02-19T03:15:34.459Z,16.82
2019-02-19T03:18:14.204Z,17.80
2019-02-19T03:20:53.988Z,20.43
2019-02-19T03:23:33.183Z,21.93
2019-02-19T03:26:12.968Z,21.45
2019-02-19T03:28:54.633Z,22.07
2019-02-19T03:31:33.925Z,21.20
2019-02-19T03:34:13.220Z,20.50
2019-02-19T03:36:53.268Z,19.98
2019-02-19T03:39:32.753Z,20.03
2019-02-19T03:42:12.645Z,18.95
2019-02-19T03:44:52.000Z,20.23
2019-02-19T03:47:31.206Z,18.35
2019-02-19T03:50:13.268Z,20.43
2019-02-19T03:52:52.530Z,21.17
2019-02-19T03:55:32.691Z,22.85
2019-02-19T03:58:12.104Z,20.92
2019-02-19T04:00:51.415Z,21.23
2019-02-19T04:03:31.283Z,19.52
2019-02-19T04:06:10.548Z,22.67
2019-02-19T04:08:50.311Z,21.48
2019-02-19T04:11:30.210Z,24.00
2019-02-19T04:14:12.319Z,21.87
2019-02-19T04:16:54.681Z,22.22
2019-02-19T04:19:34.020Z,23.18
2019-02-19T04:22:13.458Z,22.82
2019-02-19T04:24:53.281Z,22.98
2019-02-19T04:27:32.632Z,23.07
2019-02-19T04:30:11.895Z,22.35
2019-02-19T04:32:51.370Z,29.37
2019-02-19T04:35:30.794Z,23.87
2019-02-19T04:38:10.838Z,23.00
2019-02-19T04:40:50.601Z,22.82
2019-02-19T04:43:30.771Z,23.18
2019-02-19T04:46:12.933Z,25.02
2019-02-19T04:48:52.129Z,23.77
2019-02-19T04:51:31.246Z,23.00
2019-02-19T04:54:10.470Z,22.67
2019-02-19T04:56:50.277Z,24.75
2019-02-19T04:59:29.383Z,22.77
2019-02-19T05:02:08.596Z,23.35
2019-02-19T05:04:50.944Z,25.73
2019-02-19T05:07:30.903Z,21.43
2019-02-19T05:10:10.804Z,18.35
2019-02-19T05:12:50.232Z,16.50
2019-02-19T05:15:29.954Z,17.92
2019-02-19T05:18:09.158Z,16.10
2019-02-19T05:20:48.269Z,17.55
2019-02-19T05:23:27.964Z,17.60
2019-02-19T05:26:07.270Z,17.00
2019-02-19T05:28:47.204Z,16.12
2019-02-19T05:31:27.062Z,15.48
2019-02-19T05:34:06.810Z,16.25
2019-02-19T05:36:46.613Z,17.82
2019-02-19T05:39:25.900Z,16.67
2019-02-19T05:42:05.233Z,17.73
2019-02-19T05:44:44.475Z,17.83
2019-02-19T05:47:24.225Z,18.15
2019-02-19T05:50:06.295Z,16.57
2019-02-19T05:52:45.613Z,17.13
2019-02-19T05:55:24.864Z,16.55
2019-02-19T05:58:04.283Z,16.27
2019-02-19T06:00:43.684Z,20.60
2019-02-19T06:03:22.862Z,23.67
2019-02-19T06:06:02.112Z,21.97
2019-02-19T06:08:41.987Z,24.20
2019-02-19T06:11:21.185Z,24.07
2019-02-19T06:14:01.186Z,22.70
2019-02-19T06:16:40.420Z,22.48
2019-02-19T06:19:19.599Z,25.80
2019-02-19T06:21:59.599Z,27.02
2019-02-19T06:24:38.883Z,30.57
2019-02-19T06:27:18.620Z,30.25
2019-02-19T06:29:57.860Z,31.30
2019-02-19T06:32:37.812Z,30.88
2019-02-19T06:35:17.638Z,28.52
2019-02-19T06:37:57.618Z,28.77
2019-02-19T06:40:36.855Z,27.67
2019-02-19T06:43:16.187Z,28.10
2019-02-19T06:45:55.508Z,26.70
2019-02-19T06:48:34.970Z,26.73
2019-02-19T06:51:14.314Z,27.70
2019-02-19T06:53:54.118Z,29.10
2019-02-19T06:56:33.927Z,27.58
2019-02-19T06:59:14.269Z,28.90
2019-02-19T07:02:11.603Z,32.70
2019-02-19T07:04:57.431Z,29.98
2019-02-19T07:07:37.380Z,28.20
2019-02-19T07:10:17.432Z,26.80
2019-02-19T07:12:56.879Z,28.15
2019-02-19T07:15:36.200Z,28.75
2019-02-19T07:18:15.531Z,27.80
2019-02-19T07:20:54.763Z,29.67
2019-02-19T07:23:33.964Z,28.00
2019-02-19T07:26:14.343Z,30.80
2019-02-19T07:28:53.521Z,30.27
2019-02-19T07:31:32.732Z,28.55
2019-02-19T07:34:12.076Z,29.67
2019-02-19T07:36:53.028Z,30.05
2019-02-19T07:39:32.877Z,30.75
2019-02-19T07:42:12.221Z,34.45
2019-02-19T07:44:57.166Z,32.28
2019-02-19T07:47:37.009Z,39.03
2019-02-19T07:50:16.730Z,36.75
2019-02-19T07:52:56.706Z,38.45
2019-02-19T07:55:36.432Z,37.40
2019-02-19T07:58:16.435Z,39.23
2019-02-19T08:00:57.475Z,38.58
2019-02-19T08:03:37.326Z,39.05
2019-02-19T08:06:22.167Z,36.05
2019-02-19T08:09:02.086Z,38.25
2019-02-19T08:11:43.239Z,33.85
2019-02-19T08:14:23.986Z,33.83
2019-02-19T08:17:03.754Z,19.90
2019-02-19T08:19:43.654Z,10.13
2019-02-19T08:22:23.531Z,7.58
2019-02-19T08:25:03.121Z,7.10
2019-02-19T08:27:42.569Z,5.80
2019-02-19T08:30:22.294Z,6.50
2019-02-19T08:33:01.760Z,7.23
2019-02-19T08:35:43.512Z,7.43
2019-02-19T08:38:23.036Z,7.77
2019-02-19T08:41:02.545Z,7.90
2019-02-19T08:43:42.068Z,7.47
2019-02-19T08:46:21.530Z,6.93
2019-02-19T08:49:00.945Z,6.37
2019-02-19T08:51:40.652Z,7.30
2019-02-19T08:54:20.233Z,8.83
2019-02-19T08:56:59.617Z,8.77
2019-02-19T08:59:39.337Z,9.17
2019-02-19T09:02:18.864Z,7.90
2019-02-19T09:04:58.316Z,8.73
2019-02-19T09:07:37.832Z,8.50
2019-02-19T09:10:17.415Z,7.70
2019-02-19T09:12:58.289Z,7.83
2019-02-19T09:15:40.969Z,8.03
2019-02-19T09:18:20.468Z,7.13
2019-02-19T09:20:59.897Z,8.53
2019-02-19T09:23:40.010Z,8.83
2019-02-19T09:26:19.745Z,7.23
2019-02-19T09:28:59.335Z,8.33
2019-02-19T09:31:38.911Z,7.93
2019-02-19T09:34:20.023Z,8.53
2019-02-19T09:36:59.702Z,8.30
2019-02-19T09:39:39.699Z,11.83
2019-02-19T09:42:19.298Z,9.60
2019-02-19T09:44:58.742Z,8.70
2019-02-19T09:47:38.202Z,8.33
2019-02-19T09:50:17.752Z,7.73
2019-02-19T09:52:59.996Z,9.40
2019-02-19T09:55:39.064Z,10.47
2019-02-19T09:58:18.793Z,8.50
2019-02-19T10:00:58.305Z,8.07
2019-02-19T10:03:41.351Z,8.20
2019-02-19T10:06:20.891Z,7.10
2019-02-19T10:09:00.563Z,7.70
2019-02-19T10:11:41.514Z,7.57
2019-02-19T10:14:23.531Z,10.63
2019-02-19T10:17:03.174Z,6.93
2019-02-19T10:19:42.692Z,6.77
2019-02-19T10:22:22.164Z,6.27
2019-02-19T10:25:01.705Z,7.53
2019-02-19T10:27:41.332Z,7.53
2019-02-19T10:30:23.021Z,7.07
2019-02-19T10:33:02.458Z,6.20
2019-02-19T10:35:42.193Z,6.47
2019-02-19T10:38:21.836Z,7.20
2019-02-19T10:41:01.385Z,6.37
2019-02-19T10:43:40.925Z,7.27
2019-02-19T10:46:20.380Z,6.60
2019-02-19T10:48:59.955Z,7.20
2019-02-19T10:51:39.517Z,7.40
2019-02-19T10:54:20.303Z,7.03
2019-02-19T10:56:59.788Z,6.60
2019-02-19T10:59:39.245Z,6.33
2019-02-19T11:02:18.755Z,5.97
2019-02-19T11:04:58.246Z,5.97
2019-02-19T11:07:37.890Z,6.17
2019-02-19T11:10:17.557Z,6.10
2019-02-19T11:12:57.097Z,6.13
2019-02-19T11:15:36.481Z,5.77
2019-02-19T11:18:16.036Z,6.23
2019-02-19T11:20:55.650Z,6.70
2019-02-19T11:23:39.814Z,6.47
2019-02-19T11:26:19.420Z,6.37
2019-02-19T11:28:59.053Z,7.50
2019-02-19T11:31:38.719Z,7.73
2019-02-19T11:34:18.339Z,7.50
2019-02-19T11:36:57.884Z,7.40
2019-02-19T11:39:37.667Z,7.53
2019-02-19T11:42:17.365Z,10.37
2019-02-19T11:44:56.782Z,7.77
2019-02-19T11:47:36.375Z,8.63
2019-02-19T11:50:15.910Z,8.77
2019-02-19T11:52:55.952Z,8.58
2019-02-19T11:55:36.002Z,8.23
2019-02-19T11:58:15.900Z,8.40
2019-02-19T12:00:55.860Z,8.63
2019-02-19T12:03:35.937Z,9.63
2019-02-19T12:06:15.825Z,9.18
2019-02-19T12:08:55.748Z,9.78
2019-02-19T12:11:35.709Z,9.53
2019-02-19T12:14:15.509Z,10.05
2019-02-19T12:16:55.221Z,9.98
2019-02-19T12:19:38.082Z,10.43
2019-02-19T12:22:18.003Z,9.78
2019-02-19T12:24:57.807Z,10.58
2019-02-19T12:27:39.044Z,9.63
2019-02-19T12:30:19.075Z,11.03
2019-02-19T12:32:58.948Z,10.72
2019-02-19T12:35:38.941Z,10.65
2019-02-19T12:38:18.936Z,11.57
2019-02-19T12:40:58.912Z,11.45
2019-02-19T12:43:38.666Z,11.55
2019-02-19T12:46:18.426Z,11.70
2019-02-19T12:48:58.289Z,11.53
2019-02-19T12:51:38.104Z,10.60
2019-02-19T12:54:17.888Z,10.75
2019-02-19T12:56:57.736Z,11.55
2019-02-19T12:59:37.462Z,11.83
2019-02-19T13:02:17.349Z,11.22
2019-02-19T13:04:57.276Z,12.00
2019-02-19T13:07:37.041Z,12.37
2019-02-19T13:10:17.014Z,12.43
2019-02-19T13:12:56.959Z,13.58
2019-02-19T13:15:36.838Z,13.15
2019-02-19T13:18:16.630Z,13.03
2019-02-19T13:20:56.501Z,12.78
2019-02-19T13:23:36.265Z,13.65
2019-02-19T13:26:16.069Z,13.35
2019-02-19T13:28:56.039Z,13.72
2019-02-19T13:31:35.882Z,14.23
2019-02-19T13:34:15.734Z,13.60
2019-02-19T13:36:55.685Z,14.25
2019-02-19T13:39:35.526Z,14.63
2019-02-19T13:42:20.192Z,13.58
2019-02-19T13:45:02.891Z,13.43
2019-02-19T13:47:43.777Z,13.55
2019-02-19T13:50:23.967Z,13.78
2019-02-19T13:53:26.927Z,13.28
2019-02-19T13:56:08.262Z,13.95
2019-02-19T13:58:48.037Z,14.58
2019-02-19T14:01:32.396Z,12.98
2019-02-19T14:04:12.353Z,12.85
2019-02-19T14:06:52.264Z,12.55
2019-02-19T14:09:32.329Z,11.80
2019-02-19T14:12:12.249Z,10.65
2019-02-19T14:15:02.541Z,11.40
2019-02-19T14:17:42.267Z,9.63
2019-02-19T14:20:47.164Z,10.18
2019-02-19T14:23:44.939Z,9.25
2019-02-19T14:26:35.031Z,8.85
2019-02-19T14:29:39.873Z,9.00
2019-02-19T14:32:30.984Z,8.40
2019-02-19T14:35:28.737Z,7.72
2019-02-19T14:38:26.917Z,8.55
2019-02-19T14:41:25.742Z,7.42
2019-02-19T14:44:30.701Z,8.43
2019-02-19T14:47:29.467Z,8.65
2019-02-19T14:50:17.090Z,8.75
2019-02-19T14:53:24.815Z,9.35
2019-02-19T14:56:22.570Z,9.13
2019-02-19T14:59:36.417Z,10.25
2019-02-19T15:02:35.219Z,10.40
2019-02-19T15:05:34.197Z,9.65
2019-02-19T15:08:48.062Z,8.78
2019-02-19T15:11:52.803Z,7.67
2019-02-19T15:15:00.664Z,7.78
2019-02-19T15:17:55.814Z,8.53
2019-02-19T15:21:03.942Z,7.95
2019-02-19T15:24:01.639Z,8.33
2019-02-19T15:27:05.409Z,7.85
2019-02-19T15:29:57.179Z,7.65
2019-02-19T15:32:58.872Z,7.12
2019-02-19T15:35:56.522Z,6.55
2019-02-19T15:38:55.195Z,6.85
2019-02-19T15:41:44.716Z,5.72
2019-02-19T15:44:36.545Z,6.08
2019-02-19T15:47:29.480Z,4.97
2019-02-19T15:50:26.731Z,4.62
2019-02-19T15:53:34.518Z,4.65
2019-02-19T15:56:39.520Z,4.45
2019-02-19T15:59:41.975Z,6.00
2019-02-19T16:02:33.794Z,4.75
2019-02-19T16:05:32.495Z,7.20
2019-02-19T16:08:23.047Z,5.17
2019-02-19T16:11:18.333Z,5.37
2019-02-19T16:14:08.489Z,5.90
2019-02-19T16:17:08.126Z,7.50
2019-02-19T16:19:57.240Z,11.10
2019-02-19T16:22:57.722Z,8.53
2019-02-19T16:25:48.619Z,13.68
2019-02-19T16:28:53.545Z,8.95
2019-02-19T16:31:44.080Z,8.38
2019-02-19T16:34:36.999Z,6.28
2019-02-19T16:37:30.137Z,5.87
2019-02-19T16:40:35.823Z,8.85
2019-02-19T16:43:41.228Z,10.30
2019-02-19T16:46:36.051Z,8.45
2019-02-19T16:49:40.915Z,15.88
2019-02-19T16:52:27.988Z,8.80
2019-02-19T16:55:27.480Z,7.87
2019-02-19T16:58:16.472Z,9.28
2019-02-19T17:01:09.108Z,8.03
2019-02-19T17:04:10.858Z,9.48
2019-02-19T17:07:09.406Z,7.92
2019-02-19T17:09:58.888Z,12.00
2019-02-19T17:13:00.504Z,10.93
2019-02-19T17:15:58.784Z,8.88
2019-02-19T17:18:54.548Z,8.25
2019-02-19T17:22:05.573Z,8.93
2019-02-19T17:25:07.601Z,9.00
2019-02-19T17:28:13.321Z,9.58
2019-02-19T17:31:01.030Z,9.88
2019-02-19T17:34:12.316Z,9.85
2019-02-19T17:37:05.791Z,10.35
2019-02-19T17:40:01.845Z,9.70
2019-02-19T17:43:06.648Z,10.13
2019-02-19T17:46:04.700Z,8.88
2019-02-19T17:48:59.318Z,9.28
2019-02-19T17:51:46.645Z,8.60
2019-02-19T17:54:34.657Z,10.28
2019-02-19T17:57:32.027Z,9.85
2019-02-19T18:00:27.840Z,10.68
2019-02-19T18:03:14.242Z,9.55
2019-02-19T18:06:11.700Z,9.90
2019-02-19T18:09:09.582Z,10.53
2019-02-19T18:12:11.189Z,10.35
2019-02-19T18:15:05.838Z,11.73
2019-02-19T18:18:22.674Z,10.03
2019-02-19T18:21:02.521Z,9.73
2019-02-19T18:23:42.634Z,10.00
2019-02-19T18:26:22.496Z,10.90
2019-02-19T18:29:03.696Z,10.10
2019-02-19T18:31:43.788Z,10.20
2019-02-19T18:34:24.474Z,10.60
2019-02-19T18:37:04.284Z,11.05
2019-02-19T18:39:44.120Z,11.63
2019-02-19T18:42:24.149Z,10.88
2019-02-19T18:45:04.049Z,10.32
2019-02-19T18:47:44.327Z,11.22
2019-02-19T18:50:24.191Z,10.88
2019-02-19T18:53:04.016Z,11.83
2019-02-19T18:55:44.858Z,11.60
2019-02-19T18:58:24.963Z,11.75
2019-02-19T19:01:04.931Z,12.05
2019-02-19T19:03:44.725Z,11.55
2019-02-19T19:06:24.612Z,11.08
2019-02-19T19:09:06.498Z,11.18
2019-02-19T19:11:46.951Z,10.15
2019-02-19T19:14:26.971Z,10.80
2019-02-19T19:17:07.019Z,10.25
2019-02-19T19:19:46.845Z,10.75
2019-02-19T19:22:26.664Z,10.68
2019-02-19T19:25:10.283Z,10.05
2019-02-19T19:27:50.321Z,10.30
2019-02-19T19:30:30.353Z,10.38
2019-02-19T19:33:13.518Z,10.00
2019-02-19T19:35:55.655Z,10.10
2019-02-19T19:38:35.271Z,10.20
2019-02-19T19:41:15.201Z,9.88
2019-02-19T19:43:55.105Z,9.25
2019-02-19T19:46:37.246Z,10.05
2019-02-19T19:49:17.015Z,9.30
2019-02-19T19:51:56.987Z,9.53
2019-02-19T19:54:37.008Z,9.15
2019-02-19T19:57:17.197Z,9.85
2019-02-19T19:59:58.270Z,9.88
2019-02-19T20:02:39.753Z,9.93
2019-02-19T20:05:19.671Z,8.68
2019-02-19T20:07:59.502Z,9.58
2019-02-19T20:10:39.456Z,8.90
2019-02-19T20:13:19.271Z,9.53
2019-02-19T20:15:58.981Z,8.83
2019-02-19T20:18:39.338Z,8.95
2019-02-19T20:21:26.437Z,8.90
2019-02-19T20:24:01.374Z,9.20
2019-02-19T20:26:41.199Z,8.58
2019-02-19T20:29:21.054Z,9.35
2019-02-19T20:32:00.917Z,8.90
2019-02-19T20:34:42.117Z,9.10
2019-02-19T20:37:22.269Z,8.85
2019-02-19T20:40:02.120Z,9.05
2019-02-19T20:42:42.054Z,9.13
2019-02-19T20:45:22.210Z,8.75
2019-02-19T20:48:02.117Z,9.73
2019-02-19T20:50:42.844Z,9.93
2019-02-19T20:53:22.841Z,9.98
2019-02-19T20:56:02.664Z,10.35
2019-02-19T20:58:42.578Z,9.28
2019-02-19T21:01:22.420Z,11.05
2019-02-19T21:04:02.432Z,10.13
2019-02-19T21:06:42.355Z,10.78
2019-02-19T21:09:22.274Z,10.00
2019-02-19T21:12:02.204Z,9.83
2019-02-19T21:14:44.369Z,9.98
2019-02-19T21:17:24.449Z,9.70
2019-02-19T21:20:06.485Z,9.80
2019-02-19T21:22:46.739Z,15.43
2019-02-19T21:25:31.260Z,12.88
2019-02-19T21:28:11.422Z,10.90
2019-02-19T21:30:51.545Z,11.05
2019-02-19T21:33:31.389Z,10.32
2019-02-19T21:36:11.346Z,10.88
2019-02-19T21:38:55.475Z,10.55
2019-02-19T21:41:35.289Z,12.23
2019-02-19T21:44:15.242Z,11.22
2019-02-19T21:46:55.265Z,12.47
2019-02-19T21:49:35.294Z,11.25
2019-02-19T21:52:16.881Z,12.35
2019-02-19T21:54:58.176Z,10.98
2019-02-19T21:57:38.112Z,10.90
2019-02-19T22:00:20.727Z,11.85
2019-02-19T22:03:03.681Z,11.35
2019-02-19T22:05:43.580Z,10.68
2019-02-19T22:08:23.431Z,10.65
2019-02-19T22:11:03.358Z,10.18
2019-02-19T22:13:45.169Z,10.72
2019-02-19T22:16:26.254Z,12.58
2019-02-19T22:19:06.511Z,30.72
2019-02-19T22:22:09.050Z,10.53
2019-02-19T22:24:51.277Z,23.22
2019-02-19T22:27:31.050Z,12.98
2019-02-19T22:30:12.206Z,16.02
2019-02-19T22:32:52.334Z,12.33
2019-02-19T22:35:32.288Z,14.63
2019-02-19T22:38:12.106Z,14.95
2019-02-19T22:40:55.116Z,11.83
2019-02-19T22:43:34.747Z,11.88
2019-02-19T22:46:14.741Z,12.65
2019-02-19T22:48:54.833Z,11.85
2019-02-19T22:51:35.374Z,11.03
2019-02-19T22:54:33.263Z,11.78
2019-02-19T22:57:15.354Z,11.60
2019-02-19T22:59:55.265Z,11.65
2019-02-19T23:02:35.242Z,11.95
2019-02-19T23:05:15.079Z,11.45
2019-02-19T23:07:54.825Z,11.20
2019-02-19T23:10:34.594Z,11.55
2019-02-19T23:13:14.948Z,12.07
2019-02-19T23:15:56.098Z,12.63
2019-02-19T23:18:35.943Z,11.20
2019-02-19T23:21:15.822Z,11.88
2019-02-19T23:23:55.594Z,10.82
2019-02-19T23:26:35.352Z,11.43
2019-02-19T23:29:15.277Z,10.93
2019-02-19T23:31:55.058Z,11.75
2019-02-19T23:34:35.139Z,12.53
2019-02-19T23:37:20.534Z,11.73
2019-02-19T23:40:02.770Z,11.25
2019-02-19T23:42:42.602Z,11.48
2019-02-19T23:45:22.399Z,11.38
2019-02-19T23:48:02.242Z,11.75
2019-02-19T23:50:41.982Z,10.98
2019-02-19T23:53:21.717Z,11.18
2019-02-19T23:56:01.656Z,9.80
2019-02-19T23:58:41.587Z,11.48
